Time;durP1;ratioP1;P1;durP2;ratioP2;P2;SDS_P1;SDS_P2;PMS_P1;PMS_P2;Temp;Humidity;BMP_temperature;BMP_pressure;BME280_temperature;BME280_humidity;BME280_pressure;Samples;Min_cycle;Max_cycle;Signal;HPM_P1;HPM_P2
2023/09/03 00:05:18;;;;;;;7.60;2.77;;;;;;;23.52;87.18;100352.09;5000471;28;20059;-56
2023/09/03 00:07:48;;;;;;;8.53;2.67;;;;;;;23.75;86.46;100389.69;5008098;28;20396;-58
2023/09/03 00:10:20;;;;;;;6.43;2.40;;;;;;;23.84;86.91;100378.38;4998172;28;20473;-56
2023/09/03 00:12:52;;;;;;;6.67;2.60;;;;;;;23.88;85.97;100395.88;5007941;28;20456;-55
2023/09/03 00:15:25;;;;;;;9.03;3.00;;;;;;;23.93;85.83;100399.06;5000672;28;20657;-57
2023/09/03 00:17:55;;;;;;;11.57;3.00;;;;;;;24.05;86.12;100387.53;5023640;28;20068;-58
2023/09/03 00:20:26;;;;;;;6.30;2.70;;;;;;;24.21;85.51;100391.78;5006090;28;20045;-56
2023/09/03 00:22:56;;;;;;;4.93;2.60;;;;;;;24.30;84.42;100381.28;5024012;28;20072;-58
2023/09/03 00:25:27;;;;;;;7.73;2.80;;;;;;;24.44;84.68;100385.66;4994077;28;20115;-59
2023/09/03 00:27:59;;;;;;;8.83;2.53;;;;;;;24.47;83.69;100380.13;5001507;28;20057;-58
2023/09/03 00:30:30;;;;;;;9.30;2.50;;;;;;;24.61;83.72;100380.91;5002791;28;20477;-58
2023/09/03 00:33:00;;;;;;;6.07;2.40;;;;;;;24.67;83.60;100383.16;5009790;28;20068;-58
2023/09/03 00:35:30;;;;;;;9.30;2.83;;;;;;;24.73;82.95;100388.03;5023165;28;20462;-58
2023/09/03 00:38:00;;;;;;;6.83;2.53;;;;;;;24.77;81.85;100378.00;5013793;28;20550;-57
2023/09/03 00:40:38;;;;;;;5.33;2.23;;;;;;;24.86;81.35;100383.50;5022458;28;20048;-58
2023/09/03 00:43:10;;;;;;;5.73;2.50;;;;;;;24.93;80.44;100379.38;5013142;28;20041;-58
2023/09/03 00:45:44;;;;;;;5.90;2.37;;;;;;;24.97;80.98;100364.84;5021346;28;20138;-56
2023/09/03 00:48:17;;;;;;;13.07;2.47;;;;;;;25.08;80.17;100376.53;5011988;28;20174;-58
2023/09/03 00:50:50;;;;;;;9.00;2.37;;;;;;;25.08;79.31;100376.53;5022403;28;20067;-58
2023/09/03 00:53:23;;;;;;;6.27;2.87;;;;;;;24.95;80.04;100339.19;4994396;28;20146;-58
2023/09/03 00:55:54;;;;;;;5.30;2.40;;;;;;;25.21;80.43;100371.16;5021713;28;20132;-57
2023/09/03 00:58:28;;;;;;;6.90;2.80;;;;;;;25.27;79.42;100366.19;5011965;28;20049;-58
2023/09/03 01:00:59;;;;;;;5.43;2.60;;;;;;;25.43;79.23;100365.00;5014621;28;20051;-56
2023/09/03 01:03:30;;;;;;;7.80;2.30;;;;;;;25.53;79.83;100366.00;5021367;28;20040;-58
2023/09/03 01:06:01;;;;;;;7.63;2.43;;;;;;;25.61;77.75;100368.97;5011504;28;20049;-57
2023/09/03 01:08:32;;;;;;;9.27;1.97;;;;;;;25.70;77.94;100384.28;5020548;28;20420;-58
2023/09/03 01:11:11;;;;;;;4.37;2.13;;;;;;;25.81;74.93;100370.91;5012837;28;20053;-58
2023/09/03 01:13:51;;;;;;;5.77;2.00;;;;;;;25.85;72.42;100365.31;5022984;28;20072;-63
2023/09/03 01:16:33;;;;;;;3.23;1.83;;;;;;;25.77;72.41;100334.66;5012498;28;20152;-59
2023/09/03 01:19:38;;;;;;;2.77;1.80;;;;;;;26.04;71.42;100365.59;5012114;28;20057;-58
2023/09/03 01:22:18;;;;;;;4.13;1.67;;;;;;;26.02;67.43;100370.22;5013167;28;20053;-59
2023/09/03 01:25:10;;;;;;;4.27;1.80;;;;;;;25.94;64.05;100365.47;5022134;28;20084;-58
2023/09/03 01:27:52;;;;;;;2.83;1.53;;;;;;;25.96;62.33;100360.00;5022152;28;20052;-59
2023/09/03 01:30:24;;;;;;;4.43;1.97;;;;;;;26.12;62.94;100363.16;5012008;28;20164;-58
2023/09/03 01:32:56;;;;;;;4.33;1.63;;;;;;;26.20;61.26;100366.06;5021630;28;20343;-59
2023/09/03 01:35:27;;;;;;;2.90;1.60;;;;;;;26.19;61.14;100359.03;5011262;28;20130;-59
2023/09/03 01:37:59;;;;;;;3.50;1.50;;;;;;;26.29;59.41;100359.13;5017207;28;20132;-58
2023/09/03 01:40:30;;;;;;;2.07;1.60;;;;;;;26.32;58.73;100363.38;5022377;28;20171;-58
2023/09/03 01:43:01;;;;;;;3.40;1.60;;;;;;;26.33;59.22;100362.41;5011979;28;20076;-58
2023/09/03 01:45:39;;;;;;;2.23;1.70;;;;;;;26.35;58.57;100358.63;5021889;28;20384;-59
2023/09/03 01:48:18;;;;;;;2.30;1.83;;;;;;;26.37;58.93;100354.00;5011962;28;20049;-59
2023/09/03 01:51:00;;;;;;;5.53;2.20;;;;;;;26.47;59.44;100348.75;5021863;28;20053;-59
2023/09/03 01:53:40;;;;;;;3.73;1.50;;;;;;;26.55;57.91;100343.63;5012096;28;20048;-59
2023/09/03 01:56:14;;;;;;;4.43;2.03;;;;;;;26.60;57.93;100349.47;5012558;28;20048;-59
2023/09/03 01:58:49;;;;;;;3.93;1.53;;;;;;;26.64;57.12;100342.88;5021086;28;20045;-59
2023/09/03 02:01:22;;;;;;;7.07;2.03;;;;;;;26.76;57.33;100340.16;5011037;28;20183;-59
2023/09/03 02:03:55;;;;;;;3.83;1.27;;;;;;;26.84;56.12;100348.44;5020937;28;20472;-59
2023/09/03 02:06:27;;;;;;;4.07;1.47;;;;;;;26.82;55.80;100345.03;5011251;28;20057;-58
2023/09/03 02:08:58;;;;;;;6.80;1.43;;;;;;;26.85;55.16;100337.56;5018917;28;20504;-58
2023/09/03 02:11:28;;;;;;;4.40;1.30;;;;;;;26.85;55.47;100342.06;5021379;28;20084;-58
2023/09/03 02:13:59;;;;;;;4.27;1.70;;;;;;;26.86;53.65;100335.75;5014990;28;20045;-58
2023/09/03 02:16:31;;;;;;;2.80;1.50;;;;;;;26.93;52.75;100341.44;5021038;28;20095;-60
2023/09/03 02:19:02;;;;;;;4.03;1.50;;;;;;;26.94;53.24;100337.78;5011272;28;20033;-59
2023/09/03 02:21:33;;;;;;;2.07;1.57;;;;;;;26.87;50.74;100332.06;5020909;28;20102;-58
2023/09/03 02:24:03;;;;;;;3.67;1.50;;;;;;;26.92;51.57;100334.38;5011128;28;20122;-58
2023/09/03 02:26:34;;;;;;;4.83;1.50;;;;;;;26.87;50.11;100337.44;5021287;28;20057;-58
2023/09/03 02:29:04;;;;;;;4.37;1.73;;;;;;;26.89;50.75;100340.84;5011493;28;20633;-58
2023/09/03 02:31:37;;;;;;;3.70;1.77;;;;;;;26.83;49.44;100328.81;5021755;28;20152;-58
2023/09/03 02:34:08;;;;;;;3.00;1.77;;;;;;;26.85;50.36;100328.66;5012177;28;20044;-58
2023/09/03 02:36:39;;;;;;;5.43;2.10;;;;;;;27.03;50.85;100332.50;5021408;28;20454;-58
2023/09/03 02:39:10;;;;;;;4.30;1.70;;;;;;;27.09;50.76;100331.97;5010899;28;20114;-59
2023/09/03 02:41:41;;;;;;;6.00;2.03;;;;;;;27.04;49.62;100328.84;5020402;28;20060;-58
2023/09/03 02:44:11;;;;;;;7.97;2.30;;;;;;;27.01;49.88;100323.72;5011240;28;20049;-59
2023/09/03 02:46:43;;;;;;;2.97;1.80;;;;;;;27.11;48.99;100343.44;5020486;28;20366;-57
2023/09/03 02:49:14;;;;;;;3.70;1.83;;;;;;;27.09;50.79;100341.84;5009784;28;20068;-58
2023/09/03 02:51:45;;;;;;;5.97;2.20;;;;;;;27.10;49.78;100339.03;5020323;28;20037;-59
2023/09/03 02:54:15;;;;;;;5.13;2.33;;;;;;;27.24;51.13;100339.75;5010156;28;20094;-59
2023/09/03 02:56:46;;;;;;;4.37;2.10;;;;;;;27.29;50.23;100338.34;5020328;28;20412;-59
2023/09/03 02:59:16;;;;;;;4.90;2.57;;;;;;;27.28;50.01;100325.94;5010824;28;20064;-58
2023/09/03 03:01:49;;;;;;;3.07;1.80;;;;;;;27.37;48.82;100340.38;5020167;28;20075;-59
2023/09/03 03:04:20;;;;;;;3.57;2.30;;;;;;;27.33;49.47;100322.84;5010962;28;20468;-58
2023/09/03 03:06:50;;;;;;;4.10;2.10;;;;;;;27.41;48.90;100327.53;5020756;28;20060;-58
2023/09/03 03:09:21;;;;;;;5.70;2.13;;;;;;;27.42;49.52;100326.56;5009601;28;20052;-59
2023/09/03 03:11:52;;;;;;;6.10;2.17;;;;;;;27.46;50.34;100334.22;5024195;28;20060;-57
2023/09/03 03:14:22;;;;;;;4.63;1.73;;;;;;;27.48;49.86;100337.63;5013764;28;20407;-59
2023/09/03 03:16:55;;;;;;;3.70;2.30;;;;;;;27.45;49.66;100343.25;5011951;28;20072;-59
2023/09/03 03:19:26;;;;;;;8.50;2.57;;;;;;;27.54;48.50;100341.63;5012897;28;20053;-59
2023/09/03 03:21:56;;;;;;;3.93;2.30;;;;;;;27.52;46.96;100343.59;5024135;28;20084;-57
2023/09/03 03:24:27;;;;;;;4.50;2.17;;;;;;;27.42;49.05;100308.63;5013708;28;20049;-59
2023/09/03 03:26:57;;;;;;;4.93;2.20;;;;;;;27.65;48.39;100354.09;5024127;28;20053;-59
2023/09/03 03:29:28;;;;;;;4.33;2.30;;;;;;;27.63;46.64;100348.00;5014280;28;20076;-58
2023/09/03 03:32:00;;;;;;;5.13;2.70;;;;;;;27.52;47.28;100344.44;5019084;28;20375;-57
2023/09/03 03:34:31;;;;;;;3.87;2.17;;;;;;;27.47;47.40;100352.03;5023397;28;20119;-59
2023/09/03 03:37:02;;;;;;;5.33;2.13;;;;;;;27.46;48.19;100344.97;5014161;28;20541;-58
2023/09/03 03:39:34;;;;;;;10.20;2.33;;;;;;;27.39;46.67;100354.53;5023351;28;20056;-59
2023/09/03 03:42:05;;;;;;;5.53;2.53;;;;;;;27.41;48.60;100352.56;5014080;28;20107;-57
2023/09/03 03:44:36;;;;;;;8.43;2.20;;;;;;;27.40;48.18;100353.53;5023601;28;20132;-58
2023/09/03 03:47:08;;;;;;;4.33;2.17;;;;;;;27.33;47.63;100344.28;5014542;28;20044;-59
2023/09/03 03:49:39;;;;;;;4.37;2.00;;;;;;;27.27;47.00;100344.84;5024935;28;20051;-58
2023/09/03 03:52:12;;;;;;;4.30;2.37;;;;;;;27.36;48.94;100351.22;5010999;28;20468;-58
2023/09/03 03:54:42;;;;;;;3.50;2.20;;;;;;;27.41;48.69;100346.31;5023340;28;20140;-58
2023/09/03 03:57:13;;;;;;;7.50;2.23;;;;;;;27.39;49.26;100346.47;5012998;28;20131;-59
2023/09/03 03:59:44;;;;;;;5.37;1.97;;;;;;;27.36;49.43;100332.44;5023395;28;20056;-60
2023/09/03 04:02:16;;;;;;;2.87;2.13;;;;;;;26.93;49.72;100256.47;5013617;28;20072;-60
2023/09/03 04:04:47;;;;;;;3.23;1.93;;;;;;;27.36;48.31;100336.00;5023518;28;20483;-58
2023/09/03 04:07:18;;;;;;;3.63;1.53;;;;;;;27.34;48.31;100327.22;5013669;28;20771;-58
2023/09/03 04:09:48;;;;;;;5.90;1.97;;;;;;;27.34;49.15;100332.59;5023631;28;20044;-57
2023/09/03 04:12:19;;;;;;;5.20;2.10;;;;;;;27.40;49.71;100328.53;5013012;28;20057;-58
2023/09/03 04:14:50;;;;;;;4.83;2.50;;;;;;;27.32;48.18;100327.34;5024058;28;20049;-60
2023/09/03 04:17:22;;;;;;;3.03;1.97;;;;;;;27.29;48.65;100318.72;5013668;28;20065;-59
2023/09/03 04:19:53;;;;;;;4.17;2.07;;;;;;;27.27;48.74;100323.38;5002728;28;20061;-59
2023/09/03 04:22:23;;;;;;;3.57;2.00;;;;;;;27.25;49.13;100319.97;4997931;28;20064;-58
2023/09/03 04:24:54;;;;;;;5.97;2.40;;;;;;;27.21;49.08;100314.03;5018770;28;20424;-60
2023/09/03 04:27:24;;;;;;;2.70;1.93;;;;;;;27.21;49.31;100307.78;5013225;28;20041;-59
2023/09/03 04:29:55;;;;;;;6.77;2.17;;;;;;;27.26;49.81;100313.63;5022423;28;20033;-60
2023/09/03 04:32:27;;;;;;;3.67;1.97;;;;;;;27.26;49.79;100310.97;4992830;28;20053;-58
2023/09/03 04:34:58;;;;;;;3.90;2.10;;;;;;;27.27;49.64;100307.28;4998670;28;20144;-60
2023/09/03 04:37:29;;;;;;;7.20;2.20;;;;;;;27.34;50.13;100313.81;5004149;28;20050;-60
2023/09/03 04:39:59;;;;;;;4.83;2.10;;;;;;;27.31;49.58;100314.09;4993269;28;20140;-60
2023/09/03 04:42:30;;;;;;;3.03;1.80;;;;;;;27.38;51.40;100307.19;5002717;28;20392;-60
2023/09/03 04:45:01;;;;;;;5.83;2.27;;;;;;;27.45;51.77;100316.41;4993384;28;20128;-60
2023/09/03 04:47:33;;;;;;;5.63;2.27;;;;;;;27.42;51.06;100300.59;5008374;28;20164;-59
2023/09/03 04:50:04;;;;;;;5.43;2.10;;;;;;;27.45;50.59;100289.59;5014050;28;20063;-60
2023/09/03 04:52:35;;;;;;;2.83;1.90;;;;;;;27.44;50.86;100298.63;5022867;28;20052;-60
2023/09/03 04:55:07;;;;;;;5.70;1.90;;;;;;;27.43;51.62;100296.94;5011592;28;20048;-59
2023/09/03 04:57:38;;;;;;;3.90;1.90;;;;;;;27.40;50.88;100297.19;5022573;28;20135;-60
2023/09/03 05:00:10;;;;;;;4.57;1.90;;;;;;;27.33;50.04;100301.38;5024895;28;20061;-59
2023/09/03 05:02:42;;;;;;;2.87;1.93;;;;;;;27.32;51.39;100305.06;5055204;28;20049;-61
2023/09/03 05:05:13;;;;;;;4.30;2.27;;;;;;;27.34;51.93;100297.72;5055932;28;20044;-60
2023/09/03 05:07:44;;;;;;;5.37;2.20;;;;;;;27.37;52.68;100302.81;5055430;28;20099;-61
2023/09/03 05:10:15;;;;;;;6.53;2.17;;;;;;;27.38;51.19;100296.47;5055265;28;20533;-60
2023/09/03 05:12:45;;;;;;;5.07;2.17;;;;;;;27.36;50.80;100295.75;5055545;28;20074;-60
2023/09/03 05:15:16;;;;;;;5.00;2.70;;;;;;;27.41;51.42;100292.66;5055010;28;20476;-61
2023/09/03 05:17:48;;;;;;;5.13;2.27;;;;;;;27.43;50.70;100290.69;5054854;28;20047;-61
2023/09/03 05:20:19;;;;;;;4.33;2.30;;;;;;;27.36;48.53;100290.41;5054733;28;20052;-61
2023/09/03 05:22:50;;;;;;;5.33;2.43;;;;;;;27.28;49.01;100293.75;5053959;28;20452;-61
2023/09/03 05:25:21;;;;;;;6.27;3.47;;;;;;;27.31;49.33;100298.00;5053868;28;20071;-61
2023/09/03 05:27:51;;;;;;;5.20;2.50;;;;;;;27.18;48.92;100292.81;5034537;28;20036;-61
2023/09/03 05:30:22;;;;;;;6.20;2.40;;;;;;;27.21;49.33;100305.09;5025454;28;20047;-61
2023/09/03 05:32:54;;;;;;;4.63;2.20;;;;;;;27.17;50.07;100312.53;5034092;28;20045;-61
2023/09/03 05:35:26;;;;;;;4.93;2.70;;;;;;;27.20;49.72;100317.66;5023157;28;20052;-60
2023/09/03 05:37:57;;;;;;;6.43;2.40;;;;;;;27.20;50.37;100314.16;5027980;28;20053;-60
2023/09/03 05:40:27;;;;;;;5.63;2.20;;;;;;;27.15;49.78;100313.66;5012160;28;20350;-59
2023/09/03 05:42:58;;;;;;;5.57;2.20;;;;;;;27.13;50.72;100310.25;5021094;28;20250;-58
2023/09/03 05:45:29;;;;;;;6.50;3.00;;;;;;;27.17;51.95;100300.97;5032974;28;20044;-61
2023/09/03 05:48:01;;;;;;;3.30;1.73;;;;;;;27.20;51.25;100308.78;5035421;28;20066;-60
2023/09/03 05:50:32;;;;;;;3.53;2.20;;;;;;;27.10;49.99;100306.00;5032503;28;20063;-59
2023/09/03 05:53:07;;;;;;;8.33;2.37;;;;;;;27.06;50.23;100304.56;5035780;28;20068;-58
2023/09/03 05:55:39;;;;;;;3.67;2.23;;;;;;;27.04;50.22;100306.53;5047759;28;20040;-60
2023/09/03 05:58:10;;;;;;;4.17;2.30;;;;;;;27.04;49.44;100307.38;5023321;28;20075;-60
2023/09/03 06:00:45;;;;;;;5.60;2.77;;;;;;;27.03;49.60;100304.81;5055462;28;20045;-59
2023/09/03 06:03:17;;;;;;;4.97;2.93;;;;;;;26.98;49.30;100307.03;5054255;28;20052;-60
2023/09/03 06:05:51;;;;;;;4.17;2.70;;;;;;;26.94;49.24;100309.13;5054748;28;20044;-60
2023/09/03 06:08:28;;;;;;;5.60;3.30;;;;;;;26.92;49.89;100313.78;5046419;28;20055;-59
2023/09/03 06:11:01;;;;;;;5.20;2.77;;;;;;;26.89;50.44;100303.31;5025350;28;20368;-58
2023/09/03 06:13:32;;;;;;;4.40;2.90;;;;;;;26.86;49.83;100303.59;5034615;28;20033;-60
2023/09/03 06:16:03;;;;;;;4.37;2.40;;;;;;;26.85;49.12;100320.63;5024677;28;20037;-60
2023/09/03 06:18:35;;;;;;;4.13;2.33;;;;;;;26.81;49.72;100327.22;5035229;28;20044;-59
2023/09/03 06:21:06;;;;;;;3.60;2.33;;;;;;;26.71;49.47;100323.59;5028750;28;20514;-61
2023/09/03 06:23:37;;;;;;;4.63;2.33;;;;;;;26.63;50.22;100325.13;5034069;28;20040;-62
2023/09/03 06:26:08;;;;;;;7.20;2.70;;;;;;;26.65;50.13;100328.50;5024387;28;20044;-61
2023/09/03 06:28:41;;;;;;;6.27;2.53;;;;;;;26.65;49.93;100333.84;5052324;28;20045;-62
2023/09/03 06:31:12;;;;;;;3.67;2.30;;;;;;;26.62;50.59;100328.75;5020806;28;20044;-58
2023/09/03 06:33:45;;;;;;;5.03;2.50;;;;;;;26.61;51.66;100328.88;5033646;28;20106;-61
2023/09/03 06:36:16;;;;;;;4.30;2.23;;;;;;;26.56;51.42;100334.63;5005140;28;20052;-61
2023/09/03 06:38:47;;;;;;;9.07;2.40;;;;;;;26.52;51.94;100333.13;5015718;28;20436;-59
2023/09/03 06:41:17;;;;;;;5.80;2.00;;;;;;;26.48;52.12;100331.69;5019433;28;21064;-58
2023/09/03 06:43:47;;;;;;;6.13;2.20;;;;;;;26.45;52.96;100337.28;5031746;28;20041;-60
2023/09/03 06:46:18;;;;;;;3.50;2.30;;;;;;;26.44;53.13;100340.97;5053725;28;20049;-62
2023/09/03 06:48:50;;;;;;;4.20;2.03;;;;;;;26.40;53.02;100344.84;5052311;28;20045;-63
2023/09/03 06:51:22;;;;;;;5.97;3.47;;;;;;;26.34;53.72;100340.84;5026920;28;20345;-61
2023/09/03 06:53:52;;;;;;;6.00;3.80;;;;;;;26.36;54.69;100338.91;5027313;28;20064;-59
2023/09/03 06:56:23;;;;;;;14.07;3.73;;;;;;;26.34;54.83;100345.38;4998533;28;20055;-60
2023/09/03 06:58:54;;;;;;;8.87;6.50;;;;;;;26.28;55.06;100345.84;5028888;28;20403;-61
2023/09/03 07:01:24;;;;;;;9.63;6.30;;;;;;;26.21;55.15;100341.00;5029030;28;20049;-59
2023/09/03 07:03:57;;;;;;;8.27;6.43;;;;;;;26.18;55.42;100345.75;5025532;28;20060;-60
2023/09/03 07:06:28;;;;;;;9.10;6.73;;;;;;;26.06;55.04;100339.56;5020487;28;20067;-60
2023/09/03 07:08:59;;;;;;;8.63;3.97;;;;;;;26.05;55.48;100351.22;5032394;28;20072;-61
2023/09/03 07:11:30;;;;;;;8.80;5.00;;;;;;;25.98;55.26;100350.00;5033057;28;20045;-61
2023/09/03 07:14:01;;;;;;;5.30;3.70;;;;;;;25.92;56.19;100350.50;5022115;28;20129;-61
2023/09/03 07:16:32;;;;;;;3.47;2.40;;;;;;;25.87;55.85;100347.34;5031831;28;20049;-61
2023/09/03 07:19:05;;;;;;;4.97;2.43;;;;;;;25.77;55.56;100352.53;5033788;28;20364;-61
2023/09/03 07:21:35;;;;;;;6.70;2.17;;;;;;;25.69;56.00;100355.81;5032720;28;20057;-62
2023/09/03 07:24:06;;;;;;;5.27;2.73;;;;;;;25.60;56.29;100357.38;5023492;28;20037;-61
2023/09/03 07:26:37;;;;;;;7.07;2.93;;;;;;;25.55;56.70;100364.06;5033551;28;20040;-61
2023/09/03 07:29:07;;;;;;;33.57;19.77;;;;;;;25.47;56.75;100350.44;5024333;28;20045;-61
2023/09/03 07:31:40;;;;;;;14.77;10.10;;;;;;;25.43;56.77;100365.00;5051749;28;20080;-62
2023/09/03 07:34:13;;;;;;;9.30;7.20;;;;;;;25.38;57.41;100362.69;5041588;28;20075;-62
2023/09/03 07:36:45;;;;;;;8.33;4.27;;;;;;;25.29;57.65;100364.25;5033182;28;20356;-62
2023/09/03 07:39:15;;;;;;;5.37;3.60;;;;;;;25.31;58.34;100375.69;5023547;28;20111;-61
2023/09/03 07:41:48;;;;;;;6.97;3.20;;;;;;;25.21;58.67;100372.03;5032462;28;20098;-62
2023/09/03 07:44:18;;;;;;;7.73;2.67;;;;;;;25.18;58.16;100388.28;5042739;28;20045;-62
2023/09/03 07:46:49;;;;;;;4.67;2.20;;;;;;;25.09;58.11;100399.66;5033565;28;20060;-60
2023/09/03 07:49:21;;;;;;;7.00;2.40;;;;;;;25.01;58.51;100402.03;5010783;28;20082;-61
2023/09/03 07:51:51;;;;;;;7.20;2.70;;;;;;;24.84;59.16;100388.09;5020717;28;20094;-59
2023/09/03 07:54:22;;;;;;;5.37;2.57;;;;;;;24.87;59.54;100401.25;5011443;28;20091;-60
2023/09/03 07:56:55;;;;;;;8.20;3.00;;;;;;;24.84;60.31;100405.97;5020671;28;20077;-62
2023/09/03 07:59:26;;;;;;;3.60;1.90;;;;;;;24.81;60.77;100403.50;4993701;28;20089;-60
2023/09/03 08:01:59;;;;;;;9.87;3.00;;;;;;;24.73;61.07;100404.06;5004600;28;20083;-61
2023/09/03 08:04:31;;;;;;;8.67;2.40;;;;;;;24.69;61.90;100406.13;4996690;28;20608;-61
2023/09/03 08:07:03;;;;;;;6.50;2.73;;;;;;;24.68;62.53;100411.56;4994562;28;20044;-61
2023/09/03 08:09:33;;;;;;;4.07;1.93;;;;;;;24.67;63.17;100415.22;5017564;28;20057;-62
2023/09/03 08:12:04;;;;;;;4.67;2.57;;;;;;;24.63;63.90;100419.06;5013928;28;20132;-61
2023/09/03 08:14:35;;;;;;;6.63;2.10;;;;;;;24.56;64.22;100412.44;5023933;28;20147;-58
2023/09/03 08:17:06;;;;;;;6.73;2.67;;;;;;;24.50;65.20;100408.41;5014027;28;20060;-61
2023/09/03 08:19:38;;;;;;;4.83;2.50;;;;;;;24.38;65.88;100415.47;5024268;28;20136;-61
2023/09/03 08:22:09;;;;;;;5.93;2.43;;;;;;;24.31;66.07;100425.75;5014291;28;20536;-64
2023/09/03 08:24:40;;;;;;;5.70;2.50;;;;;;;24.20;66.42;100422.13;5022233;28;20448;-62
2023/09/03 08:27:10;;;;;;;4.30;2.27;;;;;;;24.10;67.05;100424.59;5013280;28;20041;-62
2023/09/03 08:29:41;;;;;;;6.70;2.30;;;;;;;24.03;67.86;100421.47;5023427;28;20475;-61
2023/09/03 08:32:13;;;;;;;5.23;2.20;;;;;;;23.83;67.63;100414.00;5013363;28;20067;-60
2023/09/03 08:34:45;;;;;;;4.43;2.10;;;;;;;23.78;68.21;100437.50;5022044;28;20049;-62
2023/09/03 08:37:16;;;;;;;8.17;2.50;;;;;;;23.70;68.66;100438.00;5012204;28;20063;-61
2023/09/03 08:39:47;;;;;;;7.83;2.40;;;;;;;23.62;69.25;100437.66;5023542;28;20057;-60
2023/09/03 08:42:18;;;;;;;5.57;2.40;;;;;;;23.51;69.09;100451.72;5013679;28;20125;-63
2023/09/03 08:44:53;;;;;;;6.13;2.40;;;;;;;23.42;70.28;100452.34;5023260;28;20057;-63
2023/09/03 08:47:24;;;;;;;6.37;2.50;;;;;;;23.12;70.89;100424.09;5013230;28;20072;-62
2023/09/03 08:49:56;;;;;;;4.93;2.47;;;;;;;23.16;71.00;100448.72;5022567;28;20055;-61
2023/09/03 08:52:28;;;;;;;7.20;2.10;;;;;;;23.09;71.40;100456.31;4992503;28;20053;-63
2023/09/03 08:55:01;;;;;;;6.23;2.40;;;;;;;22.95;71.79;100453.63;5003015;28;20136;-64
2023/09/03 08:57:34;;;;;;;3.93;2.33;;;;;;;22.81;72.25;100466.06;5012532;28;20474;-62
2023/09/03 09:00:07;;;;;;;5.17;2.37;;;;;;;22.61;73.01;100467.31;5012606;28;20075;-62
2023/09/03 09:02:56;;;;;;;4.80;2.10;;;;;;;22.35;73.13;100434.34;5022185;28;20052;-63
2023/09/03 09:09:09;;;;;;;6.67;2.20;;;;;;;22.24;74.20;100458.13;5010679;28;20474;-62
2023/09/03 09:11:47;;;;;;;7.30;2.40;;;;;;;22.13;74.33;100465.88;5021520;28;20484;-62
2023/09/03 09:14:28;;;;;;;3.50;2.00;;;;;;;22.02;74.78;100473.66;5012710;28;20046;-62
2023/09/03 09:16:59;;;;;;;6.13;2.80;;;;;;;21.83;74.90;100464.13;5012765;28;20053;-61
2023/09/03 09:19:34;;;;;;;6.77;2.47;;;;;;;21.76;75.57;100476.06;5022436;28;20067;-62
2023/09/03 09:22:07;;;;;;;5.40;2.13;;;;;;;21.67;75.73;100492.59;5011994;28;20068;-59
2023/09/03 09:24:46;;;;;;;4.47;2.50;;;;;;;21.48;76.04;100480.34;5022447;28;20053;-61
2023/09/03 09:27:19;;;;;;;4.57;2.00;;;;;;;21.53;75.93;100482.75;5012286;28;20127;-61
2023/09/03 09:29:51;;;;;;;3.50;2.00;;;;;;;21.38;76.23;100489.78;5022028;28;20154;-59
2023/09/03 09:32:26;;;;;;;5.03;2.07;;;;;;;21.34;76.29;100472.28;5011474;28;20380;-61
2023/09/03 09:34:57;;;;;;;7.67;2.50;;;;;;;21.38;76.27;100495.09;5022337;28;20741;-59
2023/09/03 09:37:39;;;;;;;7.50;2.67;;;;;;;21.36;76.13;100499.63;4994436;28;20323;-61
2023/09/03 09:40:12;;;;;;;5.37;2.17;;;;;;;21.32;76.09;100506.09;4994142;28;20156;-60
2023/09/03 09:42:55;;;;;;;3.90;2.30;;;;;;;21.30;76.02;100497.34;5022093;28;20387;-61
2023/09/03 09:45:27;;;;;;;6.07;2.63;;;;;;;20.72;75.61;100420.94;5011583;28;20280;-63
2023/09/03 09:48:06;;;;;;;5.13;2.37;;;;;;;21.16;75.49;100500.78;5013819;28;20286;-64
2023/09/03 09:50:38;;;;;;;8.23;2.88;;;;;;;21.14;75.75;100518.59;5021283;28;20662;-63
2023/09/03 09:53:26;;;;;;;4.73;2.30;;;;;;;21.08;75.85;100525.13;5012339;28;20056;-62
2023/09/03 09:56:02;;;;;;;6.17;2.67;;;;;;;20.94;75.59;100506.44;5021396;28;20377;-64
2023/09/03 09:58:38;;;;;;;7.03;2.40;;;;;;;21.00;75.75;100527.38;4991992;28;20303;-64
2023/09/03 10:01:10;;;;;;;9.90;3.03;;;;;;;20.97;76.57;100534.66;4991644;28;20291;-63
2023/09/03 10:03:44;;;;;;;7.70;2.93;;;;;;;20.87;77.87;100552.91;5014838;28;20313;-64
2023/09/03 10:06:17;;;;;;;10.93;2.27;;;;;;;20.59;79.17;100543.78;5011911;28;20587;-63
2023/09/03 10:08:51;;;;;;;10.13;3.13;;;;;;;20.54;80.14;100555.50;5022210;28;20370;-60
2023/09/03 10:11:23;;;;;;;6.37;3.50;;;;;;;20.50;80.90;100553.97;4999974;28;20350;-62
2023/09/03 10:14:08;;;;;;;7.83;2.70;;;;;;;20.40;81.43;100562.41;5006108;28;20280;-63
2023/09/03 10:16:41;;;;;;;10.77;2.90;;;;;;;20.20;81.96;100559.97;5003459;28;20280;-62
2023/09/03 10:19:18;;;;;;;7.13;2.50;;;;;;;20.14;82.69;100586.78;4991481;28;20305;-60
2023/09/03 10:21:51;;;;;;;12.67;2.80;;;;;;;20.07;82.98;100593.34;5001581;28;20319;-63
2023/09/03 10:24:27;;;;;;;6.63;2.40;;;;;;;19.85;83.38;100556.44;4991267;28;20272;-63
2023/09/03 10:27:04;;;;;;;5.67;2.60;;;;;;;20.11;83.65;100606.38;5005651;28;20284;-64
2023/09/03 10:29:38;;;;;;;7.33;3.07;;;;;;;20.11;83.20;100601.06;5021931;28;20276;-60
2023/09/03 10:32:13;;;;;;;6.00;2.57;;;;;;;20.06;83.33;100597.78;5012624;28;20372;-62
2023/09/03 10:34:44;;;;;;;8.93;2.60;;;;;;;20.03;83.99;100597.94;5021436;28;20279;-63
2023/09/03 10:37:16;;;;;;;9.80;2.60;;;;;;;19.94;83.99;100593.09;5012052;28;20345;-64
2023/09/03 10:40:19;;;;;;;6.23;3.10;;;;;;;19.87;84.09;100596.97;5021855;28;20845;-63
2023/09/03 10:42:54;;;;;;;7.03;2.77;;;;;;;19.69;85.20;100596.94;5021216;28;20310;-62
2023/09/03 10:45:26;;;;;;;6.53;2.83;;;;;;;19.71;86.19;100592.44;5011175;28;20284;-62
2023/09/03 10:48:03;;;;;;;7.47;2.87;;;;;;;19.67;86.35;100590.91;5017116;28;20311;-63
2023/09/03 10:50:48;;;;;;;6.87;2.60;;;;;;;19.64;86.91;100580.38;5021024;28;20288;-63
2023/09/03 10:53:37;;;;;;;7.40;2.67;;;;;;;19.64;87.02;100585.69;5011404;28;20377;-62
2023/09/03 10:56:11;;;;;;;7.13;2.40;;;;;;;19.55;87.70;100597.59;5011595;28;20364;-61
2023/09/03 10:58:58;;;;;;;7.80;2.83;;;;;;;19.42;88.33;100585.91;5021646;28;20751;-60
2023/09/03 11:01:32;;;;;;;8.90;3.30;;;;;;;19.30;88.34;100560.84;5011557;28;20263;-61
2023/09/03 11:04:05;;;;;;;8.00;3.40;;;;;;;19.42;89.01;100595.59;5011355;28;20287;-62
2023/09/03 11:06:43;;;;;;;9.93;3.37;;;;;;;19.35;89.74;100585.31;5020728;28;20299;-62
2023/09/03 11:09:28;;;;;;;7.00;3.40;;;;;;;19.37;90.21;100591.41;5011572;28;20852;-63
2023/09/03 11:12:24;;;;;;;9.50;3.33;;;;;;;19.22;90.77;100597.44;5011093;28;20665;-62
2023/09/03 11:15:01;;;;;;;8.23;3.60;;;;;;;19.07;91.90;100606.06;5021153;28;20279;-63
2023/09/03 11:17:35;;;;;;;8.33;3.77;;;;;;;19.03;92.98;100604.50;4990892;28;20635;-63
2023/09/03 11:20:11;;;;;;;6.90;3.43;;;;;;;19.09;93.02;100598.91;5000689;28;20378;-60
2023/09/03 11:22:42;;;;;;;11.10;4.10;;;;;;;19.13;93.30;100592.56;5021109;28;20341;-62
2023/09/03 11:25:17;;;;;;;7.93;4.10;;;;;;;19.07;94.04;100601.66;5010670;28;20276;-62
2023/09/03 11:27:52;;;;;;;9.97;4.87;;;;;;;18.94;94.31;100611.94;5020714;28;20284;-63
2023/09/03 11:30:25;;;;;;;7.50;3.10;;;;;;;18.83;95.00;100610.72;5011067;28;20350;-63
2023/09/03 11:32:57;;;;;;;6.97;2.77;;;;;;;18.13;96.00;100522.91;5024526;28;20287;-61
2023/09/03 11:35:38;;;;;;;6.97;3.10;;;;;;;18.69;97.40;100606.00;5014655;28;20283;-62
2023/09/03 11:38:10;;;;;;;12.93;3.80;;;;;;;18.71;97.63;100604.13;5000685;28;20303;-62
2023/09/03 11:40:42;;;;;;;6.63;3.10;;;;;;;18.65;97.51;100610.56;5008754;28;20749;-61
2023/09/03 11:43:15;;;;;;;7.60;3.07;;;;;;;18.66;97.38;100616.72;4999130;28;20276;-61
2023/09/03 11:45:50;;;;;;;6.23;2.97;;;;;;;18.64;97.15;100608.00;5009686;28;20368;-62
2023/09/03 11:48:32;;;;;;;7.33;3.40;;;;;;;18.69;96.87;100616.59;5018409;28;20587;-62
2023/09/03 11:51:06;;;;;;;5.53;3.07;;;;;;;18.66;96.85;100622.03;5018007;28;20279;-60
2023/09/03 11:53:43;;;;;;;8.80;3.30;;;;;;;18.65;96.99;100609.72;5028003;28;20844;-61
2023/09/03 11:56:17;;;;;;;6.73;3.17;;;;;;;18.58;97.48;100608.28;5019250;28;20272;-62
2023/09/03 11:58:52;;;;;;;7.83;3.17;;;;;;;18.53;98.39;100606.69;5013470;28;20322;-64